Sertosa Veintisiete — EAJZ — position and weather

sailwx.info

Track history (hours):
 
Tides and Currents Weather Stations Pressure Air Temp Water Temp Dewpoint Dewpoint Depression Visibility Wind Speed Wind Dir Waves Ship Positions

Sertosa Veintisiete

Last reported at 2016-Aug-26 04:32 UTC. Time now 2016-Aug-26 06:41 UTC.
Position N 36°11' W 005°24'.

Length 30 m; draft 5.5 m.

Type: Tug. MMSI: 224337000.

Date/timePositionNaut miles runAvg speedWind from/ knotsBaromVisibWave heightAir tempDewpointWater temp
2016-Aug-26 04:32N 36°11' W 005°24'0 0.0
2016-Aug-26 03:32N 36°11' W 005°24'0 0.0
2016-Aug-26 02:33N 36°11' W 005°24'0 0.0
2016-Aug-26 01:30N 36°11' W 005°24'0 0.0
2016-Aug-26 00:33N 36°11' W 005°24'0 0.0
2016-Aug-25 23:32N 36°11' W 005°24'1 0.5
2016-Aug-25 22:33N 36°11' W 005°24'1 0.5
2016-Aug-25 21:33N 36°11' W 005°24'0 0.0
2016-Aug-25 20:33N 36°11' W 005°24'0 0.0
2016-Aug-25 19:33N 36°11' W 005°24'0 0.0
2016-Aug-25 18:19N 36°11' W 005°24'1 1.4
2016-Aug-25 17:28N 36°10' W 005°23'0 0.0
2016-Aug-25 16:33N 36°10' W 005°23'0 0.0
2016-Aug-25 15:32N 36°10' W 005°23'0 0.0
2016-Aug-25 14:30N 36°10' W 005°23'0 0.0
2016-Aug-25 13:27N 36°10' W 005°23'0 0.0
2016-Aug-25 12:31N 36°10' W 005°23'0 0.0
2016-Aug-25 11:32N 36°10' W 005°23'0 0.0
2016-Aug-25 10:32N 36°10' W 005°23'0 0.0
2016-Aug-25 09:32N 36°10' W 005°23'0 0.0
2016-Aug-25 08:23N 36°10' W 005°23'0 0.0
2016-Aug-25 07:04N 36°10' W 005°23'1 1.2
2016-Aug-25 06:20N 36°11' W 005°24'0 0.3
2016-Aug-25 04:33N 36°11' W 005°24'0 0.3
2016-Aug-25 03:33N 36°11' W 005°24'0 0.4
2016-Aug-25 02:33N 36°11' W 005°24'0 0.0
2016-Aug-25 01:33N 36°11' W 005°24'0 0.0
2016-Aug-24 21:17N 36°11' W 005°24'0 0.0
2016-Aug-24 20:34N 36°11' W 005°24'2 2.1
2016-Aug-24 19:29N 36°08' W 005°23'8 9.0
2016-Aug-24 18:34N 36°01' W 005°20'7 7.0
2016-Aug-24 17:34N 35°54' W 005°18'0 0.4
2016-Aug-24 16:34N 35°54' W 005°19'2 2.3
2016-Aug-24 15:33N 35°56' W 005°18'9 9.1
2016-Aug-24 14:34N 36°05' W 005°22'6 5.2
2016-Aug-24 13:29N 36°10' W 005°23'0 0.0
2016-Aug-24 12:33N 36°10' W 005°23'0 0.0
2016-Aug-24 11:32N 36°10' W 005°23'0 0.0
2016-Aug-24 10:32N 36°10' W 005°23'0 0.0
2016-Aug-24 09:26N 36°10' W 005°23'0 0.0
2016-Aug-24 08:33N 36°10' W 005°23'0 0.0
2016-Aug-24 07:28N 36°10' W 005°23'0 0.0
2016-Aug-24 06:31N 36°10' W 005°23'0 0.0
2016-Aug-24 04:32N 36°10' W 005°23'0 0.0
2016-Aug-24 03:30N 36°10' W 005°23'0 0.0
2016-Aug-24 02:27N 36°10' W 005°23'0 0.0
2016-Aug-24 01:34N 36°10' W 005°23'0 0.0
2016-Aug-24 00:33N 36°10' W 005°23'0 0.0
2016-Aug-23 23:29N 36°10' W 005°23'0 0.0
2016-Aug-23 22:33N 36°10' W 005°23'0 0.0
2016-Aug-23 20:33N 36°10' W 005°23'0 0.0
2016-Aug-23 19:28N 36°10' W 005°23'0 0.0
2016-Aug-23 18:22N 36°10' W 005°23'1 0.2
2016-Aug-23 13:26N 36°11' W 005°24'1 0.6
2016-Aug-23 12:21N 36°10' W 005°25'0 0.5
2016-Aug-23 11:30N 36°10' W 005°25'1 0.4
2016-Aug-23 09:13N 36°11' W 005°24'1 0.8
2016-Aug-23 08:30N 36°11' W 005°24'1 0.3
2016-Aug-23 06:12N 36°10' W 005°23'0 0.0
2016-Aug-23 05:29N 36°10' W 005°23'0 0.0
2016-Aug-23 04:33N 36°10' W 005°23'0 0.0
2016-Aug-23 03:33N 36°10' W 005°23'1 1.0
2016-Aug-23 02:34N 36°10' W 005°24'1 1.0
2016-Aug-23 01:33N 36°10' W 005°23'0 0.0
2016-Aug-23 00:33N 36°10' W 005°23'0 0.0
2016-Aug-22 23:34N 36°10' W 005°23'5 4.7
2016-Aug-22 22:34N 36°06' W 005°22'9 8.6
2016-Aug-22 21:34N 35°57' W 005°20'4 3.6
2016-Aug-22 20:33N 35°54' W 005°19'1 0.6
2016-Aug-22 19:34N 35°54' W 005°18'8 7.8
2016-Aug-22 18:34N 36°02' W 005°22'9 8.0
2016-Aug-22 17:25N 36°10' W 005°24'0 0.1
2016-Aug-22 16:29N 36°11' W 005°24'0 0.0
2016-Aug-22 15:33N 36°11' W 005°24'0 0.0
2016-Aug-22 14:32N 36°11' W 005°24'0 0.0
2016-Aug-22 13:30N 36°11' W 005°24'0 0.1
2016-Aug-22 12:33N 36°11' W 005°24'0 0.1
2016-Aug-22 11:30N 36°11' W 005°24'0 0.2
2016-Aug-22 10:15N 36°11' W 005°24'1 2.0
2016-Aug-22 09:32N 36°10' W 005°23'2 2.2
2016-Aug-22 08:33N 36°10' W 005°25'1 0.7
2016-Aug-22 07:30N 36°10' W 005°24'0 0.2
2016-Aug-22 06:29N 36°11' W 005°24'0 0.1
2016-Aug-22 05:26N 36°11' W 005°24'0 0.0
2016-Aug-22 04:33N 36°11' W 005°24'0 0.0
2016-Aug-22 03:33N 36°11' W 005°24'1 0.7
2016-Aug-22 02:33N 36°10' W 005°25'1 0.7
2016-Aug-22 01:31N 36°11' W 005°24'0 0.0
2016-Aug-22 00:32N 36°11' W 005°24'0 0.0
2016-Aug-21 22:29N 36°11' W 005°24'0 0.0
2016-Aug-21 21:31N 36°11' W 005°24'0 0.0
2016-Aug-21 20:31N 36°11' W 005°24'1 0.3
2016-Aug-21 18:33N 36°11' W 005°24'0 0.4
2016-Aug-21 17:33N 36°10' W 005°24'1 0.8
2016-Aug-21 16:31N 36°10' W 005°23'0 0.0
2016-Aug-21 15:33N 36°10' W 005°23'0 0.0
2016-Aug-21 14:34N 36°10' W 005°23'0 0.0
2016-Aug-21 13:32N 36°10' W 005°23'0 0.0
2016-Aug-21 12:33N 36°10' W 005°23'0 0.0
2016-Aug-21 11:33N 36°10' W 005°23'0 0.1
2016-Aug-21 10:33N 36°10' W 005°23'0 0.5
2016-Aug-21 09:31N 36°10' W 005°23'1 0.4
2016-Aug-21 08:08N 36°10' W 005°23'0 0.0
2016-Aug-21 07:30N 36°10' W 005°23'0 0.0
2016-Aug-21 06:33N 36°10' W 005°23'1 1.2
2016-Aug-21 05:34N 36°11' W 005°24'0 0.0
2016-Aug-21 04:33N 36°11' W 005°24'0 0.0
2016-Aug-21 03:21N 36°11' W 005°24'0 0.0
2016-Aug-21 02:33N 36°11' W 005°24'0 0.0
2016-Aug-21 01:33N 36°11' W 005°24'0 0.0
2016-Aug-21 00:33N 36°11' W 005°24'0 0.5
2016-Aug-20 23:34N 36°11' W 005°24'0 0.4
2016-Aug-20 22:32N 36°11' W 005°24'0 0.2
2016-Aug-20 21:34N 36°11' W 005°24'0 0.2
2016-Aug-20 20:34N 36°11' W 005°24'0 0.1
2016-Aug-20 19:29N 36°11' W 005°24'1 1.1
2016-Aug-20 18:32N 36°10' W 005°24'1 1.5
2016-Aug-20 17:33N 36°10' W 005°23'0 0.0
2016-Aug-20 16:33N 36°10' W 005°23'0 0.0
2016-Aug-20 15:33N 36°10' W 005°23'0 0.0
2016-Aug-20 14:34N 36°10' W 005°23'0 0.0
2016-Aug-20 13:34N 36°10' W 005°23'0 0.0
2016-Aug-20 12:33N 36°10' W 005°23'0 0.0
2016-Aug-20 11:19N 36°10' W 005°23'0 0.0
2016-Aug-20 10:30N 36°10' W 005°23'0 0.0
2016-Aug-20 09:30N 36°10' W 005°23'0 0.0
2016-Aug-20 08:34N 36°10' W 005°23'0 0.0
2016-Aug-20 07:33N 36°10' W 005°23'0 0.0
2016-Aug-20 06:29N 36°10' W 005°23'0 0.0
2016-Aug-20 05:31N 36°10' W 005°23'0 0.0
2016-Aug-20 04:24N 36°10' W 005°23'0 0.0
2016-Aug-20 03:31N 36°10' W 005°23'0 0.0
2016-Aug-20 02:33N 36°10' W 005°23'0 0.0
2016-Aug-20 01:34N 36°10' W 005°23'0 0.0
2016-Aug-20 00:33N 36°10' W 005°23'0 0.0
2016-Aug-19 23:32N 36°10' W 005°23'0 0.0
2016-Aug-19 22:34N 36°10' W 005°23'0 0.0
2016-Aug-19 21:33N 36°10' W 005°23'0 0.0
2016-Aug-19 20:34N 36°10' W 005°23'0 0.0
2016-Aug-19 19:34N 36°10' W 005°23'0 0.0
2016-Aug-19 18:30N 36°10' W 005°23'0 0.0
2016-Aug-19 17:33N 36°10' W 005°23'0 0.0
2016-Aug-19 16:34N 36°10' W 005°23'1 0.7
2016-Aug-19 15:34N 36°11' W 005°24'0 0.1
2016-Aug-19 14:34N 36°11' W 005°24'1 0.6
2016-Aug-19 13:33N 36°10' W 005°24'0 0.5
2016-Aug-19 12:33N 36°11' W 005°24'0 0.3
2016-Aug-19 11:33N 36°11' W 005°23'1 0.7
2016-Aug-19 10:33N 36°11' W 005°24'1 0.6
2016-Aug-19 09:33N 36°11' W 005°23'1 0.5
2016-Aug-19 08:22N 36°11' W 005°24'0 0.2
2016-Aug-19 07:33N 36°10' W 005°24'1 0.7
2016-Aug-19 06:04N 36°10' W 005°23'0 0.0
2016-Aug-19 05:33N 36°10' W 005°23'0 0.0
2016-Aug-19 04:33N 36°10' W 005°23'0 0.0
2016-Aug-19 03:29N 36°10' W 005°23'0 0.0
2016-Aug-19 01:30N 36°10' W 005°23'0 0.0
2016-Aug-19 00:33N 36°10' W 005°23'0 0.0
2016-Aug-18 23:34N 36°10' W 005°23'0 0.0
2016-Aug-18 22:34N 36°10' W 005°23'0 0.4
2016-Aug-18 21:34N 36°10' W 005°23'2 2.4
2016-Aug-18 20:34N 36°09' W 005°26'0 0.0
2016-Aug-18 19:34N 36°09' W 005°26'0 0.0
2016-Aug-18 18:33N 36°09' W 005°26'0 0.0
2016-Aug-18 17:34N 36°09' W 005°26'0 0.0
2016-Aug-18 16:33N 36°09' W 005°26'0 0.0
2016-Aug-18 15:34N 36°09' W 005°26'0 0.0
2016-Aug-18 14:33N 36°09' W 005°26'0 0.0
2016-Aug-18 13:32N 36°09' W 005°26'0 0.0
2016-Aug-18 12:33N 36°09' W 005°26'1 0.6
2016-Aug-18 11:33N 36°08' W 005°26'0 0.0
2016-Aug-18 06:30N 36°08' W 005°26'0 0.2
2016-Aug-18 05:33N 36°08' W 005°26'1 0.9
2016-Aug-18 04:33N 36°09' W 005°25'1 0.5
2016-Aug-18 03:24N 36°08' W 005°26'0 0.0
2016-Aug-18 01:34N 36°08' W 005°26'1 0.5
2016-Aug-18 00:33N 36°08' W 005°26'3 2.9
2016-Aug-17 23:32N 36°11' W 005°24'0 0.0
2016-Aug-17 22:33N 36°11' W 005°24'0 0.2
2016-Aug-17 21:30N 36°11' W 005°24'0 0.2
2016-Aug-17 20:33N 36°11' W 005°24'0 0.0
2016-Aug-17 19:34N 36°11' W 005°24'0 0.0
2016-Aug-17 18:34N 36°11' W 005°24'2 2.1
2016-Aug-17 17:34N 36°09' W 005°26'0 0.0
2016-Aug-17 16:33N 36°09' W 005°26'0 0.0
2016-Aug-17 15:33N 36°09' W 005°26'0 0.0
2016-Aug-17 14:33N 36°09' W 005°26'0 0.0
2016-Aug-17 13:33N 36°09' W 005°26'0 0.0
2016-Aug-17 12:32N 36°09' W 005°26'0 0.0
2016-Aug-17 11:28N 36°09' W 005°26'0 0.0
2016-Aug-17 10:32N 36°09' W 005°26'0 0.0
2016-Aug-17 09:33N 36°09' W 005°26'0 0.0
2016-Aug-17 06:18N 36°09' W 005°26'0 0.0
2016-Aug-17 05:27N 36°09' W 005°26'0 0.0
2016-Aug-17 03:06N 36°09' W 005°26'0 0.0
2016-Aug-17 02:28N 36°09' W 005°26'0 0.0
2016-Aug-17 01:28N 36°09' W 005°26'0 0.0
2016-Aug-17 00:11N 36°09' W 005°26'1 1.0
2016-Aug-16 23:33N 36°08' W 005°26'1 1.4
2016-Aug-16 22:33N 36°08' W 005°24'1 0.7
2016-Aug-16 21:33N 36°08' W 005°25'1 0.8
2016-Aug-16 20:18N 36°09' W 005°26'0 0.0
2016-Aug-16 19:25N 36°09' W 005°26'0 0.0
2016-Aug-16 18:11N 36°09' W 005°26'2 3.3
2016-Aug-16 17:32N 36°11' W 005°24'0 0.1
2016-Aug-16 16:26N 36°11' W 005°24'0 0.0
2016-Aug-16 15:23N 36°11' W 005°24'  
Track history (hours):
 
Tides and Currents Weather Stations Pressure Air Temp Water Temp Dewpoint Dewpoint Depression Visibility Wind Speed Wind Dir Waves Ship Positions

Sertosa Veintisiete

Last reported at 2016-Aug-26 04:32 UTC. Time now 2016-Aug-26 06:41 UTC.
Position N 36°11' W 005°24'.

Length 30 m; draft 5.5 m.

Type: Tug. MMSI: 224337000.

Date/timePositionNaut miles runAvg speedWind from/ knotsBaromVisibWave heightAir tempDewpointWater temp
2016-Aug-26 04:32N 36°11' W 005°24'0 0.0
2016-Aug-26 03:32N 36°11' W 005°24'0 0.0
2016-Aug-26 02:33N 36°11' W 005°24'0 0.0
2016-Aug-26 01:30N 36°11' W 005°24'0 0.0
2016-Aug-26 00:33N 36°11' W 005°24'0 0.0
2016-Aug-25 23:32N 36°11' W 005°24'1 0.5
2016-Aug-25 22:33N 36°11' W 005°24'1 0.5
2016-Aug-25 21:33N 36°11' W 005°24'0 0.0
2016-Aug-25 20:33N 36°11' W 005°24'0 0.0
2016-Aug-25 19:33N 36°11' W 005°24'0 0.0
2016-Aug-25 18:19N 36°11' W 005°24'1 1.4
2016-Aug-25 17:28N 36°10' W 005°23'0 0.0
2016-Aug-25 16:33N 36°10' W 005°23'0 0.0
2016-Aug-25 15:32N 36°10' W 005°23'0 0.0
2016-Aug-25 14:30N 36°10' W 005°23'0 0.0
2016-Aug-25 13:27N 36°10' W 005°23'0 0.0
2016-Aug-25 12:31N 36°10' W 005°23'0 0.0
2016-Aug-25 11:32N 36°10' W 005°23'0 0.0
2016-Aug-25 10:32N 36°10' W 005°23'0 0.0
2016-Aug-25 09:32N 36°10' W 005°23'0 0.0
2016-Aug-25 08:23N 36°10' W 005°23'0 0.0
2016-Aug-25 07:04N 36°10' W 005°23'1 1.2
2016-Aug-25 06:20N 36°11' W 005°24'0 0.3
2016-Aug-25 04:33N 36°11' W 005°24'0 0.3
2016-Aug-25 03:33N 36°11' W 005°24'0 0.4
2016-Aug-25 02:33N 36°11' W 005°24'0 0.0
2016-Aug-25 01:33N 36°11' W 005°24'0 0.0
2016-Aug-24 21:17N 36°11' W 005°24'0 0.0
2016-Aug-24 20:34N 36°11' W 005°24'2 2.1
2016-Aug-24 19:29N 36°08' W 005°23'8 9.0
2016-Aug-24 18:34N 36°01' W 005°20'7 7.0
2016-Aug-24 17:34N 35°54' W 005°18'0 0.4
2016-Aug-24 16:34N 35°54' W 005°19'2 2.3
2016-Aug-24 15:33N 35°56' W 005°18'9 9.1
2016-Aug-24 14:34N 36°05' W 005°22'6 5.2
2016-Aug-24 13:29N 36°10' W 005°23'0 0.0
2016-Aug-24 12:33N 36°10' W 005°23'0 0.0
2016-Aug-24 11:32N 36°10' W 005°23'0 0.0
2016-Aug-24 10:32N 36°10' W 005°23'0 0.0
2016-Aug-24 09:26N 36°10' W 005°23'0 0.0
2016-Aug-24 08:33N 36°10' W 005°23'0 0.0
2016-Aug-24 07:28N 36°10' W 005°23'0 0.0
2016-Aug-24 06:31N 36°10' W 005°23'0 0.0
2016-Aug-24 04:32N 36°10' W 005°23'0 0.0
2016-Aug-24 03:30N 36°10' W 005°23'0 0.0
2016-Aug-24 02:27N 36°10' W 005°23'0 0.0
2016-Aug-24 01:34N 36°10' W 005°23'0 0.0
2016-Aug-24 00:33N 36°10' W 005°23'0 0.0
2016-Aug-23 23:29N 36°10' W 005°23'0 0.0
2016-Aug-23 22:33N 36°10' W 005°23'0 0.0
2016-Aug-23 20:33N 36°10' W 005°23'0 0.0
2016-Aug-23 19:28N 36°10' W 005°23'0 0.0
2016-Aug-23 18:22N 36°10' W 005°23'1 0.2
2016-Aug-23 13:26N 36°11' W 005°24'1 0.6
2016-Aug-23 12:21N 36°10' W 005°25'0 0.5
2016-Aug-23 11:30N 36°10' W 005°25'1 0.4
2016-Aug-23 09:13N 36°11' W 005°24'1 0.8
2016-Aug-23 08:30N 36°11' W 005°24'1 0.3
2016-Aug-23 06:12N 36°10' W 005°23'0 0.0
2016-Aug-23 05:29N 36°10' W 005°23'0 0.0
2016-Aug-23 04:33N 36°10' W 005°23'0 0.0
2016-Aug-23 03:33N 36°10' W 005°23'1 1.0
2016-Aug-23 02:34N 36°10' W 005°24'1 1.0
2016-Aug-23 01:33N 36°10' W 005°23'0 0.0
2016-Aug-23 00:33N 36°10' W 005°23'0 0.0
2016-Aug-22 23:34N 36°10' W 005°23'5 4.7
2016-Aug-22 22:34N 36°06' W 005°22'9 8.6
2016-Aug-22 21:34N 35°57' W 005°20'4 3.6
2016-Aug-22 20:33N 35°54' W 005°19'1 0.6
2016-Aug-22 19:34N 35°54' W 005°18'8 7.8
2016-Aug-22 18:34N 36°02' W 005°22'9 8.0
2016-Aug-22 17:25N 36°10' W 005°24'0 0.1
2016-Aug-22 16:29N 36°11' W 005°24'0 0.0
2016-Aug-22 15:33N 36°11' W 005°24'0 0.0
2016-Aug-22 14:32N 36°11' W 005°24'0 0.0
2016-Aug-22 13:30N 36°11' W 005°24'0 0.1
2016-Aug-22 12:33N 36°11' W 005°24'0 0.1
2016-Aug-22 11:30N 36°11' W 005°24'0 0.2
2016-Aug-22 10:15N 36°11' W 005°24'1 2.0
2016-Aug-22 09:32N 36°10' W 005°23'2 2.2
2016-Aug-22 08:33N 36°10' W 005°25'1 0.7
2016-Aug-22 07:30N 36°10' W 005°24'0 0.2
2016-Aug-22 06:29N 36°11' W 005°24'0 0.1
2016-Aug-22 05:26N 36°11' W 005°24'0 0.0
2016-Aug-22 04:33N 36°11' W 005°24'0 0.0
2016-Aug-22 03:33N 36°11' W 005°24'1 0.7
2016-Aug-22 02:33N 36°10' W 005°25'1 0.7
2016-Aug-22 01:31N 36°11' W 005°24'0 0.0
2016-Aug-22 00:32N 36°11' W 005°24'0 0.0
2016-Aug-21 22:29N 36°11' W 005°24'0 0.0
2016-Aug-21 21:31N 36°11' W 005°24'0 0.0
2016-Aug-21 20:31N 36°11' W 005°24'1 0.3
2016-Aug-21 18:33N 36°11' W 005°24'0 0.4
2016-Aug-21 17:33N 36°10' W 005°24'1 0.8
2016-Aug-21 16:31N 36°10' W 005°23'0 0.0
2016-Aug-21 15:33N 36°10' W 005°23'0 0.0
2016-Aug-21 14:34N 36°10' W 005°23'0 0.0
2016-Aug-21 13:32N 36°10' W 005°23'0 0.0
2016-Aug-21 12:33N 36°10' W 005°23'0 0.0
2016-Aug-21 11:33N 36°10' W 005°23'0 0.1
2016-Aug-21 10:33N 36°10' W 005°23'0 0.5
2016-Aug-21 09:31N 36°10' W 005°23'1 0.4
2016-Aug-21 08:08N 36°10' W 005°23'0 0.0
2016-Aug-21 07:30N 36°10' W 005°23'0 0.0
2016-Aug-21 06:33N 36°10' W 005°23'1 1.2
2016-Aug-21 05:34N 36°11' W 005°24'0 0.0
2016-Aug-21 04:33N 36°11' W 005°24'0 0.0
2016-Aug-21 03:21N 36°11' W 005°24'0 0.0
2016-Aug-21 02:33N 36°11' W 005°24'0 0.0
2016-Aug-21 01:33N 36°11' W 005°24'0 0.0
2016-Aug-21 00:33N 36°11' W 005°24'0 0.5
2016-Aug-20 23:34N 36°11' W 005°24'0 0.4
2016-Aug-20 22:32N 36°11' W 005°24'0 0.2
2016-Aug-20 21:34N 36°11' W 005°24'0 0.2
2016-Aug-20 20:34N 36°11' W 005°24'0 0.1
2016-Aug-20 19:29N 36°11' W 005°24'1 1.1
2016-Aug-20 18:32N 36°10' W 005°24'1 1.5
2016-Aug-20 17:33N 36°10' W 005°23'0 0.0
2016-Aug-20 16:33N 36°10' W 005°23'0 0.0
2016-Aug-20 15:33N 36°10' W 005°23'0 0.0
2016-Aug-20 14:34N 36°10' W 005°23'0 0.0
2016-Aug-20 13:34N 36°10' W 005°23'0 0.0
2016-Aug-20 12:33N 36°10' W 005°23'0 0.0
2016-Aug-20 11:19N 36°10' W 005°23'0 0.0
2016-Aug-20 10:30N 36°10' W 005°23'0 0.0
2016-Aug-20 09:30N 36°10' W 005°23'0 0.0
2016-Aug-20 08:34N 36°10' W 005°23'0 0.0
2016-Aug-20 07:33N 36°10' W 005°23'0 0.0
2016-Aug-20 06:29N 36°10' W 005°23'0 0.0
2016-Aug-20 05:31N 36°10' W 005°23'0 0.0
2016-Aug-20 04:24N 36°10' W 005°23'0 0.0
2016-Aug-20 03:31N 36°10' W 005°23'0 0.0
2016-Aug-20 02:33N 36°10' W 005°23'0 0.0
2016-Aug-20 01:34N 36°10' W 005°23'0 0.0
2016-Aug-20 00:33N 36°10' W 005°23'0 0.0
2016-Aug-19 23:32N 36°10' W 005°23'0 0.0
2016-Aug-19 22:34N 36°10' W 005°23'0 0.0
2016-Aug-19 21:33N 36°10' W 005°23'0 0.0
2016-Aug-19 20:34N 36°10' W 005°23'0 0.0
2016-Aug-19 19:34N 36°10' W 005°23'0 0.0
2016-Aug-19 18:30N 36°10' W 005°23'0 0.0
2016-Aug-19 17:33N 36°10' W 005°23'0 0.0
2016-Aug-19 16:34N 36°10' W 005°23'1 0.7
2016-Aug-19 15:34N 36°11' W 005°24'0 0.1
2016-Aug-19 14:34N 36°11' W 005°24'1 0.6
2016-Aug-19 13:33N 36°10' W 005°24'0 0.5
2016-Aug-19 12:33N 36°11' W 005°24'0 0.3
2016-Aug-19 11:33N 36°11' W 005°23'1 0.7
2016-Aug-19 10:33N 36°11' W 005°24'1 0.6
2016-Aug-19 09:33N 36°11' W 005°23'1 0.5
2016-Aug-19 08:22N 36°11' W 005°24'0 0.2
2016-Aug-19 07:33N 36°10' W 005°24'1 0.7
2016-Aug-19 06:04N 36°10' W 005°23'0 0.0
2016-Aug-19 05:33N 36°10' W 005°23'0 0.0
2016-Aug-19 04:33N 36°10' W 005°23'0 0.0
2016-Aug-19 03:29N 36°10' W 005°23'0 0.0
2016-Aug-19 01:30N 36°10' W 005°23'0 0.0
2016-Aug-19 00:33N 36°10' W 005°23'0 0.0
2016-Aug-18 23:34N 36°10' W 005°23'0 0.0
2016-Aug-18 22:34N 36°10' W 005°23'0 0.4
2016-Aug-18 21:34N 36°10' W 005°23'2 2.4
2016-Aug-18 20:34N 36°09' W 005°26'0 0.0
2016-Aug-18 19:34N 36°09' W 005°26'0 0.0
2016-Aug-18 18:33N 36°09' W 005°26'0 0.0
2016-Aug-18 17:34N 36°09' W 005°26'0 0.0
2016-Aug-18 16:33N 36°09' W 005°26'0 0.0
2016-Aug-18 15:34N 36°09' W 005°26'0 0.0
2016-Aug-18 14:33N 36°09' W 005°26'0 0.0
2016-Aug-18 13:32N 36°09' W 005°26'0 0.0
2016-Aug-18 12:33N 36°09' W 005°26'1 0.6
2016-Aug-18 11:33N 36°08' W 005°26'0 0.0
2016-Aug-18 06:30N 36°08' W 005°26'0 0.2
2016-Aug-18 05:33N 36°08' W 005°26'1 0.9
2016-Aug-18 04:33N 36°09' W 005°25'1 0.5
2016-Aug-18 03:24N 36°08' W 005°26'0 0.0
2016-Aug-18 01:34N 36°08' W 005°26'1 0.5
2016-Aug-18 00:33N 36°08' W 005°26'3 2.9
2016-Aug-17 23:32N 36°11' W 005°24'0 0.0
2016-Aug-17 22:33N 36°11' W 005°24'0 0.2
2016-Aug-17 21:30N 36°11' W 005°24'0 0.2
2016-Aug-17 20:33N 36°11' W 005°24'0 0.0
2016-Aug-17 19:34N 36°11' W 005°24'0 0.0
2016-Aug-17 18:34N 36°11' W 005°24'2 2.1
2016-Aug-17 17:34N 36°09' W 005°26'0 0.0
2016-Aug-17 16:33N 36°09' W 005°26'0 0.0
2016-Aug-17 15:33N 36°09' W 005°26'0 0.0
2016-Aug-17 14:33N 36°09' W 005°26'0 0.0
2016-Aug-17 13:33N 36°09' W 005°26'0 0.0
2016-Aug-17 12:32N 36°09' W 005°26'0 0.0
2016-Aug-17 11:28N 36°09' W 005°26'0 0.0
2016-Aug-17 10:32N 36°09' W 005°26'0 0.0
2016-Aug-17 09:33N 36°09' W 005°26'0 0.0
2016-Aug-17 06:18N 36°09' W 005°26'0 0.0
2016-Aug-17 05:27N 36°09' W 005°26'0 0.0
2016-Aug-17 03:06N 36°09' W 005°26'0 0.0
2016-Aug-17 02:28N 36°09' W 005°26'0 0.0
2016-Aug-17 01:28N 36°09' W 005°26'0 0.0
2016-Aug-17 00:11N 36°09' W 005°26'1 1.0
2016-Aug-16 23:33N 36°08' W 005°26'1 1.4
2016-Aug-16 22:33N 36°08' W 005°24'1 0.7
2016-Aug-16 21:33N 36°08' W 005°25'1 0.8
2016-Aug-16 20:18N 36°09' W 005°26'0 0.0
2016-Aug-16 19:25N 36°09' W 005°26'0 0.0
2016-Aug-16 18:11N 36°09' W 005°26'2 3.3
2016-Aug-16 17:32N 36°11' W 005°24'0 0.1
2016-Aug-16 16:26N 36°11' W 005°24'0 0.0
2016-Aug-16 15:23N 36°11' W 005°24'  

Dump ship's entire track history